Time;durP1;ratioP1;P1;durP2;ratioP2;P2;SDS_P1;SDS_P2;PMS_P1;PMS_P2;Temp;Humidity;BMP_temperature;BMP_pressure;BME280_temperature;BME280_humidity;BME280_pressure;Samples;Min_cycle;Max_cycle;Signal;HPM_P1;HPM_P2
2022/04/28 00:00:27;;;;;;;23.42;14.93;;;10.20;99.90;;;;;;4991378;28;20019;-75
2022/04/28 00:02:53;;;;;;;18.80;12.73;;;10.30;99.90;;;;;;4991038;28;20026;-69
2022/04/28 00:05:20;;;;;;;21.70;13.23;;;10.20;99.90;;;;;;4991340;28;20579;-75
2022/04/28 00:07:46;;;;;;;23.50;13.68;;;10.10;99.90;;;;;;4991797;28;20034;-74
2022/04/28 00:10:13;;;;;;;20.10;13.43;;;10.10;99.90;;;;;;4994678;28;20054;-74
2022/04/28 00:12:39;;;;;;;20.38;13.20;;;10.10;99.90;;;;;;4994879;28;20030;-74
2022/04/28 00:15:06;;;;;;;21.67;14.40;;;10.10;99.90;;;;;;4994944;28;20028;-74
2022/04/28 00:17:32;;;;;;;20.30;13.80;;;10.20;99.90;;;;;;4994962;28;20022;-74
2022/04/28 00:19:58;;;;;;;18.70;13.30;;;10.20;99.90;;;;;;4994411;28;20081;-74
2022/04/28 00:22:24;;;;;;;22.88;13.68;;;10.20;99.90;;;;;;4994962;28;20028;-72
2022/04/28 00:24:51;;;;;;;20.05;13.60;;;10.20;99.90;;;;;;4994448;28;20496;-75
2022/04/28 00:27:17;;;;;;;20.65;13.77;;;10.20;99.90;;;;;;4994573;28;20080;-73
2022/04/28 00:29:43;;;;;;;20.20;12.55;;;10.20;99.90;;;;;;4994504;28;20030;-77
2022/04/28 00:32:10;;;;;;;20.73;12.75;;;10.20;99.90;;;;;;4993603;28;20050;-76
2022/04/28 00:34:38;;;;;;;21.15;11.52;;;10.20;99.90;;;;;;4996365;28;20094;-76
2022/04/28 00:37:08;;;;;;;20.80;12.20;;;10.10;99.90;;;;;;4994053;28;20041;-74
2022/04/28 00:39:37;;;;;;;17.80;11.57;;;10.20;99.90;;;;;;4994025;28;20021;-77
2022/04/28 00:42:14;;;;;;;19.05;12.05;;;10.20;99.90;;;;;;4994679;28;20029;-76
2022/04/28 00:44:41;;;;;;;17.40;11.75;;;10.20;99.90;;;;;;4994265;28;20369;-72
2022/04/28 00:47:08;;;;;;;17.60;11.30;;;10.10;99.90;;;;;;4993569;28;20030;-70
2022/04/28 00:52:30;;;;;;;18.50;11.63;;;10.10;99.90;;;;;;4992528;28;20062;-75
2022/04/28 00:54:58;;;;;;;19.75;12.73;;;10.10;99.90;;;;;;4994221;28;20042;-72
2022/04/28 00:57:25;;;;;;;18.00;11.45;;;10.20;99.90;;;;;;4998634;28;20089;-76
2022/04/28 00:59:52;;;;;;;16.75;10.88;;;10.20;99.90;;;;;;4993876;28;20502;-75
2022/04/28 01:02:19;;;;;;;16.70;11.10;;;10.20;99.90;;;;;;5010735;28;20064;-74
2022/04/28 01:04:49;;;;;;;18.25;12.63;;;10.30;99.90;;;;;;5015084;28;20044;-68
2022/04/28 01:07:17;;;;;;;18.63;12.00;;;10.30;99.90;;;;;;4994809;28;20042;-74
2022/04/28 01:09:44;;;;;;;21.00;12.27;;;10.30;99.90;;;;;;4997908;28;20033;-73
2022/04/28 01:12:17;;;;;;;17.23;10.52;;;10.30;99.90;;;;;;4998991;28;20038;-75
2022/04/28 01:14:47;;;;;;;16.73;10.55;;;10.40;99.90;;;;;;4998237;28;20049;-76
2022/04/28 01:17:13;;;;;;;16.30;10.70;;;10.30;99.90;;;;;;4993753;28;20027;-70
2022/04/28 01:19:43;;;;;;;23.40;10.20;;;10.30;99.90;;;;;;4993367;28;20134;-76
2022/04/28 01:22:12;;;;;;;16.15;10.85;;;10.20;99.90;;;;;;4992178;28;20050;-75
2022/04/28 01:24:38;;;;;;;15.95;10.50;;;10.20;99.90;;;;;;4992764;28;20077;-73
2022/04/28 01:27:07;;;;;;;18.45;11.20;;;10.20;99.90;;;;;;4992192;28;20026;-76
2022/04/28 01:29:34;;;;;;;16.75;9.90;;;10.10;99.90;;;;;;4992152;28;20468;-76
2022/04/28 01:32:01;;;;;;;15.15;9.50;;;10.00;99.90;;;;;;4999537;28;20065;-72
2022/04/28 01:34:29;;;;;;;17.42;10.50;;;9.90;99.90;;;;;;4993521;28;20026;-77
2022/04/28 01:36:55;;;;;;;18.05;10.45;;;9.90;99.90;;;;;;4991877;28;20033;-72
2022/04/28 01:39:21;;;;;;;16.90;10.23;;;9.90;99.90;;;;;;4993365;28;20034;-75
2022/04/28 01:41:48;;;;;;;18.65;10.73;;;9.90;99.90;;;;;;4991924;28;20113;-76
2022/04/28 01:44:14;;;;;;;18.17;10.77;;;9.80;99.90;;;;;;4993040;28;20018;-76
2022/04/28 01:46:40;;;;;;;15.32;9.85;;;9.80;99.90;;;;;;4991823;28;20035;-74
2022/04/28 01:49:28;;;;;;;15.40;10.07;;;9.70;99.90;;;;;;4992996;28;20026;-76
2022/04/28 01:55:19;;;;;;;16.70;11.65;;;9.60;99.90;;;;;;4991739;28;20062;-77
2022/04/28 01:58:00;;;;;;;16.65;10.25;;;9.60;99.90;;;;;;4992891;28;20042;-77
2022/04/28 02:00:51;;;;;;;18.88;11.10;;;9.50;99.90;;;;;;4972350;28;20672;-76
2022/04/28 02:03:18;;;;;;;17.27;10.43;;;9.50;99.90;;;;;;4987685;28;20035;-75
2022/04/28 02:05:44;;;;;;;16.02;9.63;;;9.50;99.90;;;;;;4971380;28;20097;-75
2022/04/28 02:08:10;;;;;;;17.45;10.38;;;9.50;99.90;;;;;;4971030;28;20027;-75
2022/04/28 02:10:36;;;;;;;17.67;11.63;;;9.40;99.90;;;;;;4971319;28;20230;-74
2022/04/28 02:13:06;;;;;;;20.30;11.98;;;9.40;99.90;;;;;;4970781;28;20057;-77
2022/04/28 02:15:50;;;;;;;18.08;11.45;;;9.40;99.90;;;;;;4971226;28;20554;-77
2022/04/28 02:18:36;;;;;;;19.50;11.65;;;9.50;99.90;;;;;;4973963;28;20190;-75
2022/04/28 02:21:03;;;;;;;18.30;10.90;;;9.40;99.90;;;;;;4970622;28;20120;-75
2022/04/28 02:23:29;;;;;;;18.58;12.15;;;9.30;99.90;;;;;;4971213;28;20045;-75
2022/04/28 02:25:55;;;;;;;18.85;11.63;;;9.30;99.90;;;;;;4973408;28;20129;-71
2022/04/28 02:28:21;;;;;;;20.20;12.40;;;9.30;99.90;;;;;;4970804;28;20049;-75
2022/04/28 02:30:47;;;;;;;18.70;11.25;;;9.30;99.90;;;;;;4970801;28;20315;-71
2022/04/28 02:33:13;;;;;;;18.35;11.90;;;9.20;99.90;;;;;;4973396;28;20041;-73
2022/04/28 02:35:54;;;;;;;19.23;12.75;;;9.20;99.90;;;;;;4988250;28;20490;-75
2022/04/28 02:38:21;;;;;;;21.85;12.50;;;9.20;99.90;;;;;;4973505;28;20034;-69
2022/04/28 02:40:47;;;;;;;20.08;12.00;;;9.20;99.90;;;;;;4991184;28;20018;-75
2022/04/28 02:43:13;;;;;;;18.60;11.70;;;9.30;99.90;;;;;;4990901;28;20092;-75
2022/04/28 02:45:39;;;;;;;19.92;10.82;;;9.20;99.90;;;;;;4978763;28;20082;-70
2022/04/28 02:48:07;;;;;;;22.52;12.38;;;9.20;99.90;;;;;;4971607;28;20035;-70
2022/04/28 02:50:33;;;;;;;18.58;11.57;;;9.30;99.90;;;;;;4971146;28;20061;-75
2022/04/28 02:53:00;;;;;;;20.35;11.88;;;9.30;99.90;;;;;;4972677;28;20405;-75
2022/04/28 02:55:30;;;;;;;20.75;12.95;;;9.30;99.90;;;;;;4972911;28;20034;-76
2022/04/28 02:57:56;;;;;;;20.05;12.00;;;9.40;99.90;;;;;;4972689;28;20048;-77
2022/04/28 03:00:22;;;;;;;19.67;12.63;;;9.40;99.90;;;;;;4973901;28;20576;-77
2022/04/28 03:02:56;;;;;;;21.20;12.27;;;9.50;99.90;;;;;;4972937;28;20400;-78
2022/04/28 03:05:22;;;;;;;17.73;11.38;;;9.60;99.90;;;;;;4989046;28;20125;-77
2022/04/28 03:10:49;;;;;;;19.85;12.95;;;9.70;99.90;;;;;;4992165;28;20026;-77
2022/04/28 03:13:21;;;;;;;20.40;12.07;;;9.70;99.90;;;;;;4991686;28;20065;-76
2022/04/28 03:15:49;;;;;;;17.92;11.50;;;9.80;99.90;;;;;;4992000;28;20109;-77
2022/04/28 03:18:17;;;;;;;17.65;11.10;;;9.80;99.90;;;;;;4992180;28;20030;-76
2022/04/28 03:20:43;;;;;;;19.58;12.18;;;9.80;99.90;;;;;;4991718;28;20027;-75
2022/04/28 03:23:13;;;;;;;20.55;12.10;;;9.90;99.90;;;;;;4993055;28;20077;-74
2022/04/28 03:25:40;;;;;;;20.17;12.40;;;9.90;99.90;;;;;;4991957;28;20436;-73
2022/04/28 03:28:08;;;;;;;16.63;11.20;;;9.90;99.90;;;;;;4993163;28;20380;-77
2022/04/28 03:30:35;;;;;;;16.48;11.23;;;9.90;99.90;;;;;;4992996;28;20026;-76
2022/04/28 03:33:07;;;;;;;19.50;12.23;;;10.00;99.90;;;;;;4991980;28;20109;-76
2022/04/28 03:35:33;;;;;;;19.65;10.80;;;10.00;99.90;;;;;;4991775;28;20488;-75
2022/04/28 03:37:59;;;;;;;18.17;11.80;;;10.10;99.90;;;;;;4991474;28;20031;-75
2022/04/28 03:40:27;;;;;;;18.42;11.77;;;10.10;99.90;;;;;;4991932;28;20034;-77
2022/04/28 03:42:53;;;;;;;17.80;10.95;;;10.10;99.90;;;;;;4994082;28;20022;-76
2022/04/28 03:45:21;;;;;;;17.55;11.27;;;10.10;99.90;;;;;;5004899;28;20042;-76
2022/04/28 03:47:49;;;;;;;15.95;11.32;;;10.20;99.90;;;;;;5015454;28;20033;-75
2022/04/28 03:50:15;;;;;;;18.17;11.30;;;10.10;99.90;;;;;;5014944;28;20026;-76
2022/04/28 03:52:42;;;;;;;17.65;13.10;;;10.10;99.90;;;;;;5016256;28;20436;-76
2022/04/28 03:55:09;;;;;;;17.48;11.65;;;10.20;99.90;;;;;;5014932;28;20101;-76
2022/04/28 03:57:39;;;;;;;18.58;11.60;;;10.20;99.90;;;;;;5014946;28;20477;-76
2022/04/28 04:00:06;;;;;;;17.77;11.05;;;10.20;99.90;;;;;;5015027;28;20026;-74
2022/04/28 04:02:35;;;;;;;16.98;11.20;;;10.20;99.90;;;;;;5014925;28;20391;-75
2022/04/28 04:05:01;;;;;;;17.25;11.38;;;10.20;99.90;;;;;;5014777;28;20050;-74
2022/04/28 04:07:31;;;;;;;17.73;11.57;;;10.30;99.90;;;;;;5014427;28;20029;-74
2022/04/28 04:10:32;;;;;;;17.13;11.50;;;10.30;99.90;;;;;;4975013;28;20045;-78
2022/04/28 04:13:00;;;;;;;20.15;11.25;;;10.40;99.90;;;;;;4958292;28;20058;-78
2022/04/28 04:15:38;;;;;;;17.80;11.82;;;10.30;99.90;;;;;;4958683;28;20118;-77
2022/04/28 04:18:23;;;;;;;19.95;11.27;;;10.40;99.90;;;;;;4974329;28;20101;-78
2022/04/28 04:20:53;;;;;;;17.45;10.80;;;10.40;99.90;;;;;;4974678;28;20027;-78
2022/04/28 04:23:18;;;;;;;18.80;10.85;;;10.50;99.90;;;;;;4974305;28;20101;-78
2022/04/28 04:25:45;;;;;;;16.17;10.20;;;10.50;99.90;;;;;;4974288;28;20030;-77
2022/04/28 04:28:17;;;;;;;19.52;11.60;;;10.50;99.90;;;;;;4993685;28;20049;-78
2022/04/28 04:34:06;;;;;;;18.60;11.07;;;10.60;99.90;;;;;;4977539;28;20452;-78
2022/04/28 04:36:32;;;;;;;18.45;11.30;;;10.50;99.90;;;;;;4977477;28;20575;-77
2022/04/28 04:38:59;;;;;;;17.98;11.80;;;10.60;99.90;;;;;;4977484;28;20034;-77
2022/04/28 04:41:27;;;;;;;17.83;10.65;;;10.60;99.90;;;;;;4994416;28;20033;-78
2022/04/28 04:43:54;;;;;;;19.73;12.30;;;10.70;99.90;;;;;;4990961;28;20549;-77
2022/04/28 04:46:20;;;;;;;18.83;11.15;;;10.70;99.90;;;;;;5017323;28;20072;-78
2022/04/28 04:49:12;;;;;;;20.70;11.15;;;10.70;99.90;;;;;;5011793;28;20072;-78
2022/04/28 04:51:39;;;;;;;17.63;10.60;;;10.80;99.90;;;;;;5033645;28;20033;-77
2022/04/28 04:54:18;;;;;;;15.77;10.18;;;10.80;99.90;;;;;;5034412;28;20069;-77
2022/04/28 04:56:44;;;;;;;14.68;9.00;;;10.80;99.90;;;;;;5017219;28;20029;-75
2022/04/28 04:59:10;;;;;;;16.60;10.38;;;10.80;99.90;;;;;;5017196;28;20088;-78
2022/04/28 05:01:36;;;;;;;15.35;9.38;;;10.90;99.90;;;;;;5033585;28;20029;-76
2022/04/28 05:04:20;;;;;;;17.70;11.02;;;10.90;99.90;;;;;;5035047;28;20473;-78
2022/04/28 05:07:05;;;;;;;15.50;9.85;;;10.90;99.90;;;;;;5035477;28;20057;-78
2022/04/28 05:09:32;;;;;;;18.92;10.65;;;11.00;99.90;;;;;;5034932;28;20113;-77
2022/04/28 05:11:58;;;;;;;13.85;9.13;;;11.00;99.90;;;;;;5034578;28;20034;-75
2022/04/28 05:14:33;;;;;;;15.50;9.30;;;11.00;99.90;;;;;;5033242;28;20048;-76
2022/04/28 05:17:00;;;;;;;16.92;10.52;;;11.10;99.90;;;;;;5017073;28;20030;-76
2022/04/28 05:19:34;;;;;;;18.13;10.50;;;10.90;99.90;;;;;;5033276;28;20119;-75
2022/04/28 05:22:19;;;;;;;15.10;9.20;;;11.00;99.90;;;;;;5034825;28;20506;-75
2022/04/28 05:25:04;;;;;;;17.65;10.60;;;11.10;99.90;;;;;;5034829;28;20403;-78
2022/04/28 05:27:48;;;;;;;15.95;10.30;;;11.10;99.90;;;;;;5034375;28;20045;-77
2022/04/28 05:30:32;;;;;;;18.77;10.63;;;11.10;99.90;;;;;;5034482;28;20121;-77
2022/04/28 05:33:18;;;;;;;17.92;10.10;;;11.10;99.90;;;;;;5034000;28;20467;-77
2022/04/28 05:35:59;;;;;;;17.75;10.35;;;11.10;99.90;;;;;;5032674;28;20092;-75
2022/04/28 05:38:25;;;;;;;18.95;12.10;;;11.20;99.90;;;;;;5033471;28;20033;-77
2022/04/28 05:40:51;;;;;;;16.90;10.25;;;11.30;99.90;;;;;;5016454;28;20533;-67
2022/04/28 05:46:01;;;;;;;18.27;10.38;;;11.20;99.90;;;;;;5016129;28;20034;-78
2022/04/28 05:48:27;;;;;;;18.02;11.40;;;11.30;99.90;;;;;;5034396;28;20032;-68
2022/04/28 05:50:57;;;;;;;17.33;10.32;;;11.40;99.90;;;;;;5016866;28;20029;-77
2022/04/28 05:53:23;;;;;;;16.88;10.00;;;11.40;99.90;;;;;;5016246;28;20511;-77
2022/04/28 05:55:55;;;;;;;17.47;10.07;;;11.50;99.90;;;;;;5032770;28;20022;-76
2022/04/28 05:58:26;;;;;;;18.45;10.05;;;11.50;99.90;;;;;;5032829;28;20395;-77
2022/04/28 06:01:11;;;;;;;16.30;10.68;;;11.50;99.90;;;;;;5033971;28;20033;-78
2022/04/28 06:03:41;;;;;;;15.38;10.10;;;11.50;99.90;;;;;;5032598;28;20029;-75
2022/04/28 06:06:14;;;;;;;17.55;10.57;;;11.50;99.90;;;;;;5032605;28;20522;-77
2022/04/28 06:08:41;;;;;;;14.52;9.13;;;11.40;99.90;;;;;;5016139;28;20418;-76
2022/04/28 06:11:08;;;;;;;18.38;10.75;;;11.40;99.90;;;;;;5031836;28;20029;-76
2022/04/28 06:13:34;;;;;;;16.80;9.93;;;11.40;99.90;;;;;;5032210;28;20408;-77
2022/04/28 06:16:20;;;;;;;17.95;10.70;;;11.40;99.90;;;;;;4953130;28;20122;-76
2022/04/28 06:18:54;;;;;;;15.77;9.80;;;11.40;99.90;;;;;;4953114;29;20042;-77
2022/04/28 06:21:43;;;;;;;18.00;10.85;;;11.40;99.90;;;;;;4952922;28;20046;-77
2022/04/28 06:24:09;;;;;;;17.10;10.18;;;11.60;99.90;;;;;;4953350;29;20050;-77
2022/04/28 06:26:34;;;;;;;15.95;10.05;;;11.80;99.90;;;;;;4953263;28;20038;-77
2022/04/28 06:29:01;;;;;;;17.60;10.32;;;11.80;99.90;;;;;;4953020;28;20067;-77
2022/04/28 06:31:27;;;;;;;22.48;10.65;;;11.90;99.90;;;;;;4952993;28;20552;-76
2022/04/28 06:34:16;;;;;;;19.48;11.80;;;12.00;99.90;;;;;;4933648;29;20418;-77
2022/04/28 06:36:42;;;;;;;15.98;10.25;;;12.10;99.90;;;;;;4933808;29;20039;-77
2022/04/28 06:39:08;;;;;;;18.83;10.45;;;12.20;99.90;;;;;;4933919;29;20048;-77
2022/04/28 06:41:34;;;;;;;16.15;10.73;;;12.20;99.90;;;;;;4933705;29;20482;-77
2022/04/28 06:44:14;;;;;;;20.13;11.40;;;12.30;99.90;;;;;;4933449;29;20036;-77
2022/04/28 06:47:10;;;;;;;16.83;9.98;;;12.50;99.90;;;;;;4915902;29;20059;-75
2022/04/28 06:49:56;;;;;;;15.95;10.63;;;12.50;99.90;;;;;;4914717;29;20064;-79
2022/04/28 06:52:40;;;;;;;18.42;10.00;;;12.50;99.90;;;;;;4921401;29;20425;-79
2022/04/28 06:55:13;;;;;;;18.27;10.50;;;12.40;99.90;;;;;;4936253;29;20535;-78
2022/04/28 06:57:40;;;;;;;22.15;10.90;;;12.50;99.90;;;;;;4936106;29;20071;-74
2022/04/28 07:00:26;;;;;;;19.15;10.82;;;12.40;99.90;;;;;;4941357;28;20039;-77
2022/04/28 07:02:53;;;;;;;17.23;11.35;;;12.40;99.90;;;;;;4938602;28;20134;-76
2022/04/28 07:05:20;;;;;;;18.73;11.43;;;12.40;99.90;;;;;;4947625;29;20062;-78
2022/04/28 07:07:52;;;;;;;19.30;11.97;;;12.30;99.90;;;;;;4962903;28;20041;-79
2022/04/28 07:10:24;;;;;;;15.90;10.43;;;12.20;99.90;;;;;;4944906;28;20041;-79
2022/04/28 07:12:51;;;;;;;24.88;12.55;;;12.20;99.90;;;;;;4995313;28;20053;-80
2022/04/28 07:15:43;;;;;;;19.52;12.20;;;12.40;99.90;;;;;;5013688;28;20045;-79
2022/04/28 07:18:37;;;;;;;19.23;11.95;;;12.40;99.90;;;;;;5001031;28;20045;-79
2022/04/28 07:21:04;;;;;;;20.35;10.70;;;12.60;99.90;;;;;;5014022;28;20048;-79
2022/04/28 07:23:31;;;;;;;17.10;10.52;;;12.70;99.90;;;;;;5000878;28;20029;-69
2022/04/28 07:25:58;;;;;;;19.88;11.48;;;12.80;99.90;;;;;;5005410;28;20034;-79
2022/04/28 07:28:24;;;;;;;17.80;11.40;;;13.00;99.90;;;;;;5012746;28;20030;-79
2022/04/28 07:31:03;;;;;;;17.50;10.68;;;13.00;99.90;;;;;;5027807;28;20391;-78
2022/04/28 07:34:07;;;;;;;17.38;10.55;;;13.20;99.90;;;;;;5002752;28;20582;-79
2022/04/28 07:36:39;;;;;;;19.73;10.65;;;13.10;99.90;;;;;;4990991;28;20134;-77
2022/04/28 07:39:34;;;;;;;17.85;10.43;;;13.30;99.90;;;;;;4990274;28;20041;-77
2022/04/28 07:42:20;;;;;;;17.73;10.77;;;13.30;99.90;;;;;;4990216;28;20031;-79
2022/04/28 07:44:48;;;;;;;17.17;11.07;;;13.20;99.90;;;;;;4990318;28;20057;-78
2022/04/28 07:47:14;;;;;;;16.55;10.27;;;13.20;99.90;;;;;;4990856;28;20081;-79
2022/04/28 07:49:45;;;;;;;17.27;11.35;;;13.10;99.90;;;;;;4990758;28;20480;-80
2022/04/28 07:52:12;;;;;;;18.52;11.10;;;13.10;99.90;;;;;;4990481;28;20092;-79
2022/04/28 07:54:39;;;;;;;21.48;10.93;;;13.10;99.90;;;;;;4991549;28;20026;-72
2022/04/28 07:57:08;;;;;;;18.30;12.18;;;13.00;99.90;;;;;;4990410;28;20038;-75
2022/04/28 07:59:35;;;;;;;16.92;11.00;;;13.00;99.90;;;;;;4990233;28;20046;-79
2022/04/28 08:02:07;;;;;;;17.10;10.93;;;13.10;99.90;;;;;;5002588;28;20117;-78
2022/04/28 08:04:33;;;;;;;18.73;11.43;;;13.20;99.90;;;;;;5012936;28;20052;-78
2022/04/28 08:07:00;;;;;;;17.85;11.93;;;13.30;99.90;;;;;;5014156;28;20266;-79
2022/04/28 08:09:28;;;;;;;16.27;10.13;;;13.20;99.90;;;;;;5013694;28;20446;-78
2022/04/28 08:11:53;;;;;;;17.33;10.80;;;13.40;99.90;;;;;;5013373;28;20021;-79
2022/04/28 08:14:23;;;;;;;17.90;9.75;;;13.40;99.90;;;;;;5014216;28;20045;-79
2022/04/28 08:16:51;;;;;;;16.63;9.82;;;13.30;99.90;;;;;;5014535;28;20087;-79
2022/04/28 08:19:16;;;;;;;16.02;11.00;;;13.40;99.90;;;;;;5013496;28;20042;-79
2022/04/28 08:21:48;;;;;;;17.42;10.50;;;13.40;99.90;;;;;;5014019;28;20044;-78
2022/04/28 08:24:16;;;;;;;18.90;11.32;;;13.50;99.90;;;;;;5014123;28;20064;-79
2022/04/28 08:26:44;;;;;;;15.65;10.15;;;13.30;99.90;;;;;;5014333;28;20108;-79
2022/04/28 08:29:10;;;;;;;18.60;10.98;;;13.40;99.90;;;;;;5015274;28;20116;-78
2022/04/28 08:31:44;;;;;;;16.77;10.57;;;13.30;99.90;;;;;;5017841;28;20053;-79
2022/04/28 08:34:13;;;;;;;26.27;11.20;;;13.40;99.90;;;;;;5013625;28;20041;-76
2022/04/28 08:36:40;;;;;;;18.27;10.45;;;13.30;99.90;;;;;;5014003;28;20263;-71
2022/04/28 08:39:07;;;;;;;17.05;10.55;;;13.30;99.90;;;;;;5014619;28;20037;-79
2022/04/28 08:41:36;;;;;;;21.15;12.20;;;13.40;99.90;;;;;;5017329;28;20021;-75
2022/04/28 08:44:22;;;;;;;17.73;9.95;;;13.20;99.90;;;;;;5034764;28;20037;-78
2022/04/28 08:46:56;;;;;;;19.90;11.68;;;13.20;99.90;;;;;;5033083;28;20084;-79
2022/04/28 08:49:29;;;;;;;17.77;11.43;;;13.10;99.90;;;;;;5016404;28;20037;-72
2022/04/28 08:52:17;;;;;;;17.17;12.15;;;13.10;99.90;;;;;;5014641;28;20113;-75
2022/04/28 08:54:46;;;;;;;17.77;9.90;;;13.00;99.90;;;;;;4997439;28;20037;-79
2022/04/28 08:57:13;;;;;;;18.33;10.85;;;12.90;99.90;;;;;;5013003;28;20121;-77
2022/04/28 08:59:40;;;;;;;19.70;11.90;;;13.00;99.90;;;;;;5013524;28;20041;-79
2022/04/28 09:02:10;;;;;;;18.95;12.50;;;13.00;99.90;;;;;;5013476;28;20120;-77
2022/04/28 09:05:03;;;;;;;18.40;11.35;;;13.00;99.90;;;;;;5014431;28;20080;-76
2022/04/28 09:07:38;;;;;;;16.83;9.88;;;12.90;99.90;;;;;;5014410;28;20437;-72
2022/04/28 09:10:30;;;;;;;21.40;11.30;;;12.70;99.90;;;;;;5014716;28;20102;-76
2022/04/28 09:16:08;;;;;;;;;;;12.60;99.90;;;;;;4997262;28;20327;-79
2022/04/28 09:18:34;;;;;;;17.05;10.80;;;12.70;99.90;;;;;;5013822;28;19983;-78
2022/04/28 09:20:59;;;;;;;19.48;12.02;;;12.60;99.90;;;;;;5015335;28;20479;-80
2022/04/28 09:23:25;;;;;;;16.20;10.45;;;12.50;99.90;;;;;;5027239;28;20024;-79
2022/04/28 09:25:53;;;;;;;21.30;11.38;;;12.50;99.90;;;;;;5013718;28;20064;-77
2022/04/28 09:28:19;;;;;;;20.15;11.85;;;12.50;99.90;;;;;;5031850;28;20052;-72
2022/04/28 09:30:51;;;;;;;21.35;13.23;;;12.50;99.90;;;;;;5005274;28;20113;-77
2022/04/28 09:33:41;;;;;;;21.85;12.65;;;12.50;99.90;;;;;;4972509;28;20058;-79
2022/04/28 09:36:41;;;;;;;18.65;11.23;;;12.50;99.90;;;;;;4986147;28;20038;-76
2022/04/28 09:44:57;;;;;;;22.63;15.27;;;12.50;99.90;;;;;;4984403;28;20069;-78
2022/04/28 09:47:25;;;;;;;25.75;15.45;;;12.50;99.90;;;;;;4956716;28;20113;-74
2022/04/28 09:49:58;;;;;;;26.95;14.55;;;12.60;99.90;;;;;;4973040;28;20065;-77
2022/04/28 09:52:32;;;;;;;23.10;14.80;;;12.60;99.90;;;;;;4985948;28;20121;-77
2022/04/28 09:55:24;;;;;;;19.95;13.07;;;12.60;99.90;;;;;;4979794;28;20034;-71
2022/04/28 09:58:28;;;;;;;23.25;14.73;;;12.80;99.90;;;;;;4966031;28;20497;-76
2022/04/28 10:01:02;;;;;;;20.42;14.43;;;12.80;99.90;;;;;;4956770;28;20524;-77
2022/04/28 10:03:33;;;;;;;22.58;14.77;;;12.90;99.90;;;;;;4957055;28;20115;-77
2022/04/28 10:06:05;;;;;;;22.67;14.05;;;12.90;99.90;;;;;;4961579;28;20517;-79
2022/04/28 10:08:52;;;;;;;24.08;13.43;;;12.90;99.90;;;;;;4938668;28;20070;-78
2022/04/28 10:11:24;;;;;;;21.25;12.73;;;12.90;99.90;;;;;;4941023;29;20141;-78
2022/04/28 10:13:52;;;;;;;19.88;12.98;;;12.90;99.90;;;;;;4935850;29;20089;-78
2022/04/28 10:16:23;;;;;;;21.33;12.95;;;12.90;99.90;;;;;;4968394;28;20465;-78
2022/04/28 10:18:49;;;;;;;19.05;12.82;;;12.90;99.90;;;;;;4951242;29;20102;-78
2022/04/28 10:21:21;;;;;;;20.45;12.80;;;13.00;99.90;;;;;;4966493;28;20358;-79
2022/04/28 10:32:57;;;;;;;18.15;11.55;;;13.00;99.90;;;;;;4957384;29;20471;-79
2022/04/28 10:35:39;;;;;;;18.35;12.27;;;13.00;99.90;;;;;;4939296;28;20023;-75
2022/04/28 10:38:26;;;;;;;17.77;11.35;;;13.00;99.90;;;;;;4952902;28;20054;-76
2022/04/28 10:40:58;;;;;;;18.58;11.80;;;13.00;99.90;;;;;;4937095;28;20070;-78
2022/04/28 10:43:28;;;;;;;17.27;11.90;;;13.10;99.90;;;;;;4950549;29;20027;-76
2022/04/28 10:45:58;;;;;;;18.95;12.73;;;13.20;99.90;;;;;;4940372;28;20126;-79
2022/04/28 10:48:31;;;;;;;20.48;12.90;;;13.20;99.90;;;;;;4952576;28;20134;-79
2022/04/28 10:51:10;;;;;;;;;;;13.30;99.90;;;;;;4931794;29;20490;-73
2022/04/28 10:53:58;;;;;;;18.83;12.60;;;13.40;99.90;;;;;;4913196;29;19967;-79
2022/04/28 10:56:30;;;;;;;23.27;13.43;;;13.40;99.90;;;;;;4894888;29;20554;-78
2022/04/28 10:59:02;;;;;;;20.33;13.40;;;13.30;99.90;;;;;;4895036;29;20047;-70
2022/04/28 11:01:32;;;;;;;20.02;11.52;;;13.40;99.90;;;;;;4893251;29;20045;-73
2022/04/28 11:04:06;;;;;;;20.13;12.10;;;13.30;99.90;;;;;;4917161;29;20170;-73
2022/04/28 11:06:37;;;;;;;20.67;12.90;;;13.30;99.90;;;;;;4941349;29;20066;-77
2022/04/28 11:09:08;;;;;;;19.40;11.85;;;13.20;99.90;;;;;;4957596;28;20039;-77
2022/04/28 11:11:46;;;;;;;21.35;12.13;;;13.00;99.90;;;;;;4958377;28;20473;-79
2022/04/28 11:14:15;;;;;;;21.00;13.55;;;12.90;99.90;;;;;;4956163;28;20055;-78
2022/04/28 11:16:42;;;;;;;19.40;13.00;;;12.90;99.90;;;;;;4951856;29;20090;-79
2022/04/28 11:19:09;;;;;;;21.45;14.43;;;12.80;99.90;;;;;;4952227;28;20109;-78
2022/04/28 11:21:39;;;;;;;19.95;14.43;;;12.90;99.90;;;;;;4951894;28;20035;-79
2022/04/28 11:24:06;;;;;;;21.75;14.52;;;12.80;99.90;;;;;;4938804;29;20090;-76
2022/04/28 11:26:42;;;;;;;24.17;14.68;;;12.70;99.90;;;;;;4952188;29;20031;-78
2022/04/28 11:29:30;;;;;;;21.17;15.25;;;12.80;99.90;;;;;;4913928;29;20040;-76
2022/04/28 11:31:59;;;;;;;23.23;15.93;;;12.80;99.90;;;;;;4914147;29;20146;-79
2022/04/28 11:34:29;;;;;;;22.77;14.43;;;12.80;99.90;;;;;;4896935;29;20380;-76
2022/04/28 11:36:55;;;;;;;23.00;15.18;;;13.00;99.90;;;;;;4894764;29;20394;-74
2022/04/28 11:39:24;;;;;;;21.50;14.18;;;13.10;99.90;;;;;;4913042;29;20041;-78
2022/04/28 11:41:52;;;;;;;20.02;13.75;;;13.20;99.90;;;;;;4913757;29;20130;-75
2022/04/28 11:44:19;;;;;;;22.17;13.57;;;13.40;99.90;;;;;;4916139;29;20509;-77
2022/04/28 11:46:45;;;;;;;22.17;14.95;;;13.60;99.90;;;;;;4952038;29;20043;-80
2022/04/28 11:49:11;;;;;;;25.63;15.45;;;13.60;99.90;;;;;;4943033;28;20171;-79
2022/04/28 11:51:37;;;;;;;25.77;17.33;;;13.60;99.90;;;;;;4937019;29;20038;-76
2022/04/28 11:54:16;;;;;;;24.38;15.70;;;13.90;99.90;;;;;;4931693;29;21394;-78
2022/04/28 11:56:43;;;;;;;18.92;11.98;;;14.00;99.90;;;;;;4935326;29;20040;-77
2022/04/28 11:59:10;;;;;;;25.40;13.13;;;14.10;99.90;;;;;;4923925;29;20031;-69
2022/04/28 12:01:36;;;;;;;23.25;12.65;;;14.40;99.90;;;;;;4932482;29;20038;-78
2022/04/28 12:04:02;;;;;;;18.55;12.05;;;14.50;99.90;;;;;;4934006;29;20028;-79
2022/04/28 12:06:29;;;;;;;22.85;12.95;;;14.40;99.90;;;;;;4969233;28;20038;-78
2022/04/28 12:08:59;;;;;;;18.83;11.38;;;14.30;99.90;;;;;;5019873;28;20120;-77
2022/04/28 12:14:25;;;;;;;19.88;12.52;;;14.20;99.90;;;;;;5016022;28;20033;-79
2022/04/28 12:19:51;;;;;;;21.92;13.20;;;14.00;99.90;;;;;;5016023;28;20025;-72
2022/04/28 12:22:28;;;;;;;18.65;11.23;;;13.80;99.90;;;;;;5015678;28;20523;-77
2022/04/28 12:24:54;;;;;;;19.45;10.77;;;13.70;99.90;;;;;;5015514;28;20104;-77
2022/04/28 12:27:20;;;;;;;17.20;11.57;;;13.60;99.90;;;;;;5016019;28;20025;-76
2022/04/28 12:29:54;;;;;;;22.10;12.50;;;13.50;99.90;;;;;;5015927;28;20026;-75
2022/04/28 12:32:21;;;;;;;18.83;12.25;;;13.50;99.90;;;;;;5015674;28;20514;-76
2022/04/28 12:34:59;;;;;;;18.85;12.65;;;13.40;99.90;;;;;;4997859;28;20113;-76
2022/04/28 12:37:26;;;;;;;17.15;10.30;;;13.50;99.90;;;;;;5015651;28;20076;-76
2022/04/28 12:40:03;;;;;;;23.67;12.88;;;13.50;99.90;;;;;;5015241;28;20026;-76
2022/04/28 12:42:47;;;;;;;17.88;11.25;;;13.40;99.90;;;;;;5015846;28;20030;-76
2022/04/28 12:45:16;;;;;;;20.20;13.85;;;13.40;99.90;;;;;;5015209;28;20064;-77
2022/04/28 12:47:43;;;;;;;22.67;14.35;;;13.50;99.90;;;;;;5015066;28;20026;-77
2022/04/28 12:50:27;;;;;;;18.60;11.93;;;13.50;99.90;;;;;;5015086;28;20084;-77
2022/04/28 12:52:53;;;;;;;21.02;13.27;;;13.60;99.90;;;;;;5015063;28;20053;-77
2022/04/28 12:55:22;;;;;;;22.73;14.45;;;13.80;99.90;;;;;;5013635;28;20375;-77
2022/04/28 12:57:49;;;;;;;26.23;17.08;;;13.80;99.90;;;;;;5015193;28;20040;-78
2022/04/28 13:00:18;;;;;;;26.13;15.75;;;13.80;99.90;;;;;;5015047;28;20026;-78
2022/04/28 13:02:52;;;;;;;22.80;13.90;;;13.80;99.90;;;;;;5014310;28;20030;-77
2022/04/28 13:05:19;;;;;;;22.13;12.80;;;13.80;99.90;;;;;;5014249;28;20026;-77
2022/04/28 13:07:45;;;;;;;18.85;11.82;;;13.70;99.90;;;;;;5014740;28;20033;-77
2022/04/28 13:10:17;;;;;;;18.23;11.63;;;13.80;99.90;;;;;;5014380;28;20030;-76
2022/04/28 13:12:43;;;;;;;16.52;12.07;;;13.60;99.90;;;;;;5014761;28;20173;-77
2022/04/28 13:15:10;;;;;;;20.45;12.02;;;13.60;99.90;;;;;;5014015;28;20065;-74
2022/04/28 13:17:38;;;;;;;21.08;12.25;;;13.60;99.90;;;;;;5014032;28;20107;-75
2022/04/28 13:20:05;;;;;;;19.55;12.93;;;13.50;99.90;;;;;;5014286;28;20463;-78
2022/04/28 13:22:31;;;;;;;22.77;12.95;;;13.50;99.90;;;;;;5013892;28;20101;-77
2022/04/28 13:24:57;;;;;;;23.20;13.20;;;13.50;99.90;;;;;;5013756;28;20141;-77
2022/04/28 13:27:23;;;;;;;26.95;14.57;;;13.50;99.90;;;;;;5014200;28;20022;-74
2022/04/28 13:29:49;;;;;;;20.63;13.25;;;13.50;99.90;;;;;;5014714;28;20030;-75